Time;durP1;ratioP1;P1;durP2;ratioP2;P2;SDS_P1;SDS_P2;PMS_P1;PMS_P2;Temp;Humidity;BMP_temperature;BMP_pressure;BME280_temperature;BME280_humidity;BME280_pressure;Samples;Min_cycle;Max_cycle;Signal;HPM_P1;HPM_P2
2023/01/30 00:01:20;;;;;;;19.13;16.90;;;;;;;;;;5034982;28;20394;-84
2023/01/30 00:03:46;;;;;;;19.65;16.90;;;;;;;;;;5052531;28;20400;-83
2023/01/30 00:06:13;;;;;;;20.10;16.70;;;;;;;;;;5052170;28;20464;-83
2023/01/30 00:08:39;;;;;;;20.33;17.30;;;;;;;;;;5032662;28;20900;-83
2023/01/30 00:11:06;;;;;;;18.77;16.52;;;;;;;;;;5052226;28;20389;-84
2023/01/30 00:13:32;;;;;;;17.55;15.65;;;;;;;;;;5052209;28;20408;-83
2023/01/30 00:15:58;;;;;;;20.30;16.67;;;;;;;;;;5052065;28;20803;-84
2023/01/30 00:18:24;;;;;;;19.92;16.63;;;;;;;;;;5052228;28;20377;-84
2023/01/30 00:20:57;;;;;;;18.42;16.42;;;;;;;;;;5051920;28;20395;-83
2023/01/30 00:23:23;;;;;;;19.98;17.35;;;;;;;;;;5052048;28;20424;-83
2023/01/30 00:25:49;;;;;;;18.13;15.65;;;;;;;;;;5051939;28;20413;-83
2023/01/30 00:28:15;;;;;;;20.33;17.10;;;;;;;;;;5052071;28;20463;-84
2023/01/30 00:30:41;;;;;;;19.67;16.88;;;;;;;;;;5051857;28;20386;-84
2023/01/30 00:33:06;;;;;;;20.33;17.05;;;;;;;;;;5034203;28;20832;-83
2023/01/30 00:35:32;;;;;;;20.13;17.13;;;;;;;;;;5036797;28;20498;-84
2023/01/30 00:37:58;;;;;;;24.35;18.50;;;;;;;;;;5055993;28;20397;-83
2023/01/30 00:40:25;;;;;;;20.75;17.63;;;;;;;;;;5055001;28;20460;-83
2023/01/30 00:48:22;;;;;;;20.50;17.67;;;;;;;;;;5055832;28;20627;-84
2023/01/30 00:50:48;;;;;;;20.27;16.88;;;;;;;;;;5054277;28;20377;-83
2023/01/30 00:53:17;;;;;;;20.88;17.50;;;;;;;;;;5036553;28;20404;-84
2023/01/30 00:55:44;;;;;;;22.17;17.98;;;;;;;;;;5036045;28;20483;-84
2023/01/30 00:58:10;;;;;;;22.58;18.40;;;;;;;;;;5054187;28;20388;-84
2023/01/30 01:00:36;;;;;;;21.08;17.52;;;;;;;;;;5054149;28;20385;-84
2023/01/30 01:03:03;;;;;;;20.17;17.00;;;;;;;;;;5054183;28;20389;-84
2023/01/30 01:05:29;;;;;;;21.85;17.08;;;;;;;;;;5034926;28;20431;-83
2023/01/30 01:07:55;;;;;;;18.75;16.75;;;;;;;;;;5055071;28;20825;-84
2023/01/30 01:10:21;;;;;;;20.30;16.58;;;;;;;;;;5036876;28;20464;-84
2023/01/30 01:12:51;;;;;;;19.10;15.95;;;;;;;;;;5035988;28;20955;-84
2023/01/30 01:15:21;;;;;;;22.30;17.48;;;;;;;;;;5033098;28;20451;-84
2023/01/30 01:17:47;;;;;;;21.67;17.52;;;;;;;;;;5051933;28;20422;-85
2023/01/30 01:20:14;;;;;;;21.05;17.42;;;;;;;;;;5035216;28;20882;-84
2023/01/30 01:22:40;;;;;;;20.58;17.23;;;;;;;;;;5052721;28;20465;-84
2023/01/30 01:25:06;;;;;;;19.98;16.92;;;;;;;;;;5053473;28;20772;-84
2023/01/30 01:27:32;;;;;;;20.20;17.52;;;;;;;;;;5053656;28;20401;-84
2023/01/30 01:29:58;;;;;;;20.25;17.17;;;;;;;;;;5053196;28;20385;-84
2023/01/30 01:32:24;;;;;;;21.35;17.27;;;;;;;;;;5054797;28;20431;-84
2023/01/30 01:34:50;;;;;;;19.55;17.45;;;;;;;;;;5054351;28;20401;-84
2023/01/30 01:37:16;;;;;;;20.80;16.83;;;;;;;;;;5037078;28;20889;-85
2023/01/30 01:42:29;;;;;;;22.55;18.45;;;;;;;;;;5054070;28;20898;-84
2023/01/30 01:44:58;;;;;;;22.23;17.98;;;;;;;;;;5053618;28;20393;-84
2023/01/30 01:47:24;;;;;;;23.58;19.02;;;;;;;;;;5053782;28;20405;-84
2023/01/30 01:49:50;;;;;;;24.03;18.30;;;;;;;;;;5054638;28;20420;-84
2023/01/30 01:52:16;;;;;;;22.52;19.27;;;;;;;;;;5054310;28;20457;-85
2023/01/30 01:54:44;;;;;;;24.83;18.63;;;;;;;;;;5053979;28;20385;-84
2023/01/30 01:57:14;;;;;;;23.38;18.98;;;;;;;;;;5054397;28;20422;-84
2023/01/30 01:59:44;;;;;;;23.40;18.70;;;;;;;;;;5054663;28;20422;-84
2023/01/30 02:02:12;;;;;;;26.40;20.02;;;;;;;;;;5049323;28;20374;-84
2023/01/30 02:07:25;;;;;;;27.08;19.92;;;;;;;;;;5054300;28;20404;-84
2023/01/30 02:09:51;;;;;;;25.83;19.40;;;;;;;;;;5054013;28;20386;-84
2023/01/30 02:12:17;;;;;;;25.52;20.10;;;;;;;;;;5036212;28;20381;-84
2023/01/30 02:14:43;;;;;;;26.67;19.83;;;;;;;;;;5053928;28;20750;-84
2023/01/30 02:17:09;;;;;;;25.90;19.73;;;;;;;;;;5053971;28;20384;-84
2023/01/30 02:19:44;;;;;;;24.53;19.17;;;;;;;;;;5053827;28;20940;-84
2023/01/30 02:22:10;;;;;;;23.52;19.00;;;;;;;;;;5053819;28;20930;-84
2023/01/30 02:24:48;;;;;;;25.43;19.73;;;;;;;;;;5036114;28;20382;-84
2023/01/30 02:27:14;;;;;;;27.48;20.42;;;;;;;;;;5053613;28;20444;-84
2023/01/30 02:29:52;;;;;;;26.10;20.38;;;;;;;;;;5053664;28;20863;-84
2023/01/30 02:32:24;;;;;;;26.13;20.15;;;;;;;;;;5053824;28;20459;-83
2023/01/30 02:35:09;;;;;;;26.25;19.33;;;;;;;;;;5053304;28;20405;-85
2023/01/30 02:37:41;;;;;;;24.88;19.40;;;;;;;;;;5053415;28;20881;-84
2023/01/30 02:40:36;;;;;;;24.42;18.73;;;;;;;;;;5039987;28;20933;-84
2023/01/30 02:43:08;;;;;;;23.75;18.70;;;;;;;;;;5036458;28;20464;-84
2023/01/30 02:45:37;;;;;;;23.92;18.55;;;;;;;;;;5053428;28;20389;-84
2023/01/30 02:48:09;;;;;;;25.92;19.10;;;;;;;;;;5053578;28;20412;-84
2023/01/30 02:50:35;;;;;;;23.92;19.25;;;;;;;;;;5053511;28;20378;-84
2023/01/30 02:53:03;;;;;;;23.17;18.25;;;;;;;;;;5053759;28;20384;-84
2023/01/30 02:55:29;;;;;;;22.17;18.08;;;;;;;;;;5053871;28;20468;-84
2023/01/30 02:57:55;;;;;;;21.17;17.67;;;;;;;;;;5053903;28;20556;-84
2023/01/30 03:00:39;;;;;;;20.60;17.40;;;;;;;;;;5049295;28;20583;-84
2023/01/30 03:03:15;;;;;;;21.23;17.90;;;;;;;;;;5038764;28;20402;-84
2023/01/30 03:05:50;;;;;;;23.50;18.63;;;;;;;;;;5038250;28;20465;-84
2023/01/30 03:08:22;;;;;;;20.08;17.40;;;;;;;;;;5052059;28;20417;-84
2023/01/30 03:10:48;;;;;;;24.17;18.33;;;;;;;;;;5046044;28;20394;-85
2023/01/30 03:13:17;;;;;;;22.73;18.35;;;;;;;;;;5037939;28;20391;-84
2023/01/30 03:15:56;;;;;;;22.58;18.42;;;;;;;;;;5058515;28;20386;-84
2023/01/30 03:18:22;;;;;;;23.33;18.65;;;;;;;;;;5062342;28;20385;-83
2023/01/30 03:20:48;;;;;;;22.85;18.60;;;;;;;;;;5073145;28;20863;-82
2023/01/30 03:23:14;;;;;;;22.25;17.88;;;;;;;;;;5068160;28;20476;-83
2023/01/30 03:25:42;;;;;;;23.38;18.52;;;;;;;;;;5056090;28;20374;-84
2023/01/30 03:28:08;;;;;;;21.40;17.93;;;;;;;;;;5055568;28;20405;-84
2023/01/30 03:30:34;;;;;;;22.83;18.25;;;;;;;;;;5054912;28;20385;-84
2023/01/30 03:33:00;;;;;;;23.57;18.37;;;;;;;;;;5053458;28;20432;-84
2023/01/30 03:35:26;;;;;;;23.02;18.30;;;;;;;;;;5052864;28;20397;-84
2023/01/30 03:37:52;;;;;;;24.00;18.58;;;;;;;;;;5052755;28;20389;-84
2023/01/30 03:40:18;;;;;;;22.58;18.98;;;;;;;;;;5052750;28;20435;-84
2023/01/30 03:42:44;;;;;;;24.00;19.15;;;;;;;;;;5052712;28;20377;-84
2023/01/30 03:45:10;;;;;;;24.05;19.00;;;;;;;;;;5052477;28;20373;-84
2023/01/30 03:47:36;;;;;;;25.42;19.80;;;;;;;;;;5052427;28;20406;-83
2023/01/30 03:50:03;;;;;;;26.63;20.55;;;;;;;;;;5034330;28;20392;-84
2023/01/30 03:52:29;;;;;;;27.77;19.60;;;;;;;;;;5043751;28;20474;-84
2023/01/30 03:54:55;;;;;;;26.13;19.75;;;;;;;;;;5048470;28;20405;-84
2023/01/30 03:57:21;;;;;;;24.53;19.47;;;;;;;;;;5052355;28;20468;-84
2023/01/30 03:59:47;;;;;;;27.05;20.52;;;;;;;;;;5052061;28;20428;-84
2023/01/30 04:02:13;;;;;;;25.17;19.23;;;;;;;;;;5052638;28;20390;-85
2023/01/30 04:04:39;;;;;;;26.52;19.95;;;;;;;;;;5051671;28;20378;-84
2023/01/30 04:07:05;;;;;;;25.63;20.40;;;;;;;;;;5051940;28;20415;-84
2023/01/30 04:09:31;;;;;;;26.03;19.80;;;;;;;;;;5053386;28;20403;-84
2023/01/30 04:11:57;;;;;;;27.73;20.52;;;;;;;;;;5038171;28;20378;-84
2023/01/30 04:14:23;;;;;;;26.57;19.83;;;;;;;;;;5056090;28;20378;-84
2023/01/30 04:16:49;;;;;;;25.65;19.80;;;;;;;;;;5056520;28;20835;-84
2023/01/30 04:19:15;;;;;;;26.33;19.60;;;;;;;;;;5056180;28;20377;-84
2023/01/30 04:21:41;;;;;;;22.58;18.13;;;;;;;;;;5056120;28;20377;-84
2023/01/30 04:24:07;;;;;;;23.90;18.97;;;;;;;;;;5056135;28;20747;-84
2023/01/30 04:26:33;;;;;;;23.38;18.80;;;;;;;;;;5058200;28;20447;-84
2023/01/30 04:28:59;;;;;;;26.23;19.23;;;;;;;;;;5041367;28;20782;-84
2023/01/30 04:31:25;;;;;;;23.08;18.30;;;;;;;;;;5058721;28;20435;-84
2023/01/30 04:33:51;;;;;;;21.70;17.98;;;;;;;;;;5057918;28;20385;-84
2023/01/30 04:36:17;;;;;;;22.35;17.95;;;;;;;;;;5053615;28;20408;-84
2023/01/30 04:38:43;;;;;;;23.30;18.00;;;;;;;;;;5046815;28;20797;-84
2023/01/30 04:41:09;;;;;;;21.60;17.67;;;;;;;;;;5048853;28;20394;-83
2023/01/30 04:43:35;;;;;;;21.77;17.67;;;;;;;;;;5056876;28;20385;-83
2023/01/30 04:46:01;;;;;;;20.45;17.52;;;;;;;;;;5056981;28;20456;-84
2023/01/30 04:48:27;;;;;;;20.65;17.00;;;;;;;;;;5056790;28;20485;-84
2023/01/30 04:50:54;;;;;;;21.75;17.17;;;;;;;;;;5056804;28;20780;-84
2023/01/30 04:53:20;;;;;;;21.75;16.80;;;;;;;;;;5057294;28;20413;-83
2023/01/30 04:55:47;;;;;;;20.27;17.27;;;;;;;;;;5056770;28;20389;-83
2023/01/30 04:58:13;;;;;;;20.25;17.10;;;;;;;;;;5056986;28;20385;-83
2023/01/30 05:00:39;;;;;;;19.40;16.65;;;;;;;;;;5057415;28;20420;-83
2023/01/30 05:03:05;;;;;;;18.65;16.33;;;;;;;;;;5039130;28;20746;-84
2023/01/30 05:05:33;;;;;;;18.75;16.33;;;;;;;;;;5056540;28;20797;-83
2023/01/30 05:07:59;;;;;;;20.73;16.85;;;;;;;;;;5055242;28;20401;-83
2023/01/30 05:10:25;;;;;;;18.13;15.87;;;;;;;;;;5057314;28;20380;-84
2023/01/30 05:12:51;;;;;;;19.85;15.70;;;;;;;;;;5039343;28;20381;-83
2023/01/30 05:15:17;;;;;;;17.63;15.38;;;;;;;;;;5039453;28;20420;-83
2023/01/30 05:17:43;;;;;;;16.80;14.70;;;;;;;;;;5056484;28;20381;-83
2023/01/30 05:20:09;;;;;;;16.98;14.73;;;;;;;;;;5039176;28;20443;-84
2023/01/30 05:22:35;;;;;;;17.10;15.15;;;;;;;;;;5056261;28;20381;-84
2023/01/30 05:25:01;;;;;;;18.35;15.50;;;;;;;;;;5055153;28;20977;-84
2023/01/30 05:27:27;;;;;;;17.45;14.95;;;;;;;;;;5052209;28;20509;-84
2023/01/30 05:30:00;;;;;;;16.70;14.93;;;;;;;;;;5042999;28;20383;-85
2023/01/30 05:32:29;;;;;;;15.77;14.27;;;;;;;;;;5021251;28;20379;-85
2023/01/30 05:34:55;;;;;;;15.52;13.88;;;;;;;;;;5038944;28;20442;-83
2023/01/30 05:37:21;;;;;;;16.35;13.82;;;;;;;;;;5035393;28;20379;-83
2023/01/30 05:39:47;;;;;;;15.38;13.77;;;;;;;;;;5039974;28;20381;-83
2023/01/30 05:42:16;;;;;;;15.73;14.05;;;;;;;;;;5037311;28;20402;-84
2023/01/30 05:44:42;;;;;;;15.95;14.35;;;;;;;;;;5041377;28;20469;-83
2023/01/30 05:47:08;;;;;;;14.77;13.35;;;;;;;;;;5035819;28;20883;-83
2023/01/30 05:49:34;;;;;;;15.02;13.48;;;;;;;;;;5046792;28;20382;-83
2023/01/30 05:52:00;;;;;;;14.05;12.75;;;;;;;;;;5051826;28;20431;-82
2023/01/30 05:54:26;;;;;;;15.05;13.48;;;;;;;;;;5034213;28;20387;-83
2023/01/30 05:56:52;;;;;;;15.82;14.13;;;;;;;;;;5034756;28;20402;-82
2023/01/30 05:59:18;;;;;;;14.65;13.18;;;;;;;;;;5033501;28;20390;-83
2023/01/30 06:01:44;;;;;;;14.45;13.05;;;;;;;;;;5036334;28;20412;-85
2023/01/30 06:04:10;;;;;;;14.00;12.63;;;;;;;;;;5035324;28;20418;-82
2023/01/30 06:06:36;;;;;;;16.30;13.30;;;;;;;;;;5018340;28;20457;-82
2023/01/30 06:09:03;;;;;;;15.70;13.02;;;;;;;;;;5035877;28;20413;-83
2023/01/30 06:11:29;;;;;;;15.65;13.00;;;;;;;;;;5034882;28;20860;-83
2023/01/30 06:13:55;;;;;;;14.32;12.60;;;;;;;;;;5019693;28;20396;-83
2023/01/30 06:16:21;;;;;;;14.38;12.93;;;;;;;;;;5036683;28;20516;-83
2023/01/30 06:18:49;;;;;;;14.02;12.65;;;;;;;;;;5034703;28;20496;-84
2023/01/30 06:21:16;;;;;;;13.90;12.50;;;;;;;;;;5047312;28;20381;-83
2023/01/30 06:23:42;;;;;;;14.75;13.35;;;;;;;;;;5038368;28;20856;-84
2023/01/30 06:26:09;;;;;;;14.32;12.93;;;;;;;;;;5043270;28;20377;-83
2023/01/30 06:28:35;;;;;;;14.50;13.10;;;;;;;;;;5036978;28;20456;-85
2023/01/30 06:31:01;;;;;;;14.48;12.90;;;;;;;;;;5036185;28;20390;-85
2023/01/30 06:33:27;;;;;;;14.48;12.98;;;;;;;;;;5035965;28;20396;-84
2023/01/30 06:35:53;;;;;;;14.48;12.98;;;;;;;;;;5053509;28;20410;-84
2023/01/30 06:38:19;;;;;;;15.15;13.38;;;;;;;;;;5054487;28;20766;-84
2023/01/30 06:40:46;;;;;;;15.48;13.52;;;;;;;;;;5043046;28;20387;-84
2023/01/30 06:43:12;;;;;;;14.98;13.45;;;;;;;;;;5048300;28;20395;-84
2023/01/30 06:45:39;;;;;;;15.63;14.03;;;;;;;;;;5051060;28;20900;-85
2023/01/30 06:48:05;;;;;;;15.98;13.93;;;;;;;;;;5068197;28;20425;-84
2023/01/30 06:50:32;;;;;;;15.60;14.00;;;;;;;;;;5049202;28;20377;-84
2023/01/30 06:53:01;;;;;;;14.85;13.35;;;;;;;;;;5073447;28;20354;-85
2023/01/30 06:55:27;;;;;;;16.55;14.55;;;;;;;;;;5073346;28;20380;-85
2023/01/30 06:58:10;;;;;;;15.07;13.50;;;;;;;;;;5057209;28;20381;-86
2023/01/30 07:00:38;;;;;;;15.48;13.93;;;;;;;;;;5055991;28;20385;-87
2023/01/30 07:03:04;;;;;;;14.80;13.38;;;;;;;;;;5055793;28;20443;-85
2023/01/30 07:05:30;;;;;;;15.40;13.77;;;;;;;;;;5053636;28;20782;-87
2023/01/30 07:07:56;;;;;;;15.57;14.00;;;;;;;;;;5052907;28;20936;-86
2023/01/30 07:10:24;;;;;;;14.43;13.02;;;;;;;;;;5041113;28;20440;-86
2023/01/30 07:12:51;;;;;;;15.13;13.63;;;;;;;;;;5052729;28;20373;-85
2023/01/30 07:15:17;;;;;;;26.00;17.10;;;;;;;;;;5053388;28;20377;-86
2023/01/30 07:17:43;;;;;;;14.32;12.93;;;;;;;;;;5052526;28;20404;-85
2023/01/30 07:20:10;;;;;;;14.25;12.68;;;;;;;;;;5052921;28;20434;-84
2023/01/30 07:22:36;;;;;;;14.57;13.07;;;;;;;;;;5052374;28;20469;-84
2023/01/30 07:25:02;;;;;;;14.35;12.68;;;;;;;;;;5052304;28;20464;-83
2023/01/30 07:27:28;;;;;;;15.00;13.40;;;;;;;;;;5052185;28;20547;-82
2023/01/30 07:29:54;;;;;;;14.90;13.35;;;;;;;;;;5052718;28;20838;-84
2023/01/30 07:32:20;;;;;;;15.45;13.85;;;;;;;;;;5053184;28;20377;-84
2023/01/30 07:34:47;;;;;;;15.23;13.63;;;;;;;;;;5051876;28;20428;-83
2023/01/30 07:37:13;;;;;;;16.73;14.07;;;;;;;;;;5051748;28;20401;-84
2023/01/30 07:39:39;;;;;;;15.07;13.57;;;;;;;;;;5035905;28;20391;-84
2023/01/30 07:42:05;;;;;;;14.20;12.80;;;;;;;;;;5053144;28;20446;-85
2023/01/30 07:44:32;;;;;;;14.63;12.82;;;;;;;;;;5052214;28;20401;-83
2023/01/30 07:46:59;;;;;;;14.95;13.45;;;;;;;;;;5052094;28;20412;-82
2023/01/30 07:49:25;;;;;;;15.18;13.65;;;;;;;;;;5052365;28;20377;-83
2023/01/30 07:51:51;;;;;;;16.65;14.25;;;;;;;;;;5050622;28;20893;-83
2023/01/30 07:54:17;;;;;;;16.15;13.57;;;;;;;;;;5050094;28;20396;-83
2023/01/30 07:56:44;;;;;;;17.33;14.43;;;;;;;;;;5052442;28;20378;-83
2023/01/30 07:59:10;;;;;;;15.93;14.18;;;;;;;;;;5051437;28;20472;-83
2023/01/30 08:01:36;;;;;;;15.90;13.77;;;;;;;;;;5052009;28;20393;-84
2023/01/30 08:04:02;;;;;;;16.48;14.77;;;;;;;;;;5051811;28;20390;-83
2023/01/30 08:06:28;;;;;;;16.48;13.98;;;;;;;;;;5052507;28;20384;-83
2023/01/30 08:08:54;;;;;;;16.40;14.70;;;;;;;;;;5052586;28;20460;-83
2023/01/30 08:11:20;;;;;;;16.27;14.13;;;;;;;;;;5051679;28;20447;-84
2023/01/30 08:13:46;;;;;;;17.65;14.68;;;;;;;;;;5051285;28;20377;-83
2023/01/30 08:16:12;;;;;;;15.48;13.77;;;;;;;;;;5034053;28;20743;-83
2023/01/30 08:18:38;;;;;;;15.23;13.63;;;;;;;;;;5051588;28;20503;-83
2023/01/30 08:21:05;;;;;;;14.85;13.35;;;;;;;;;;5033796;28;20382;-83
2023/01/30 08:23:32;;;;;;;16.15;14.30;;;;;;;;;;5051364;28;20747;-84
2023/01/30 08:26:01;;;;;;;15.23;13.75;;;;;;;;;;5052131;28;20377;-84
2023/01/30 08:28:27;;;;;;;16.92;13.73;;;;;;;;;;5044132;28;20421;-80
2023/01/30 08:30:54;;;;;;;14.82;13.32;;;;;;;;;;5034337;28;20383;-81
2023/01/30 08:33:20;;;;;;;15.67;13.80;;;;;;;;;;5049793;28;20463;-81
2023/01/30 08:35:46;;;;;;;14.70;13.20;;;;;;;;;;5044165;28;20452;-81
2023/01/30 08:38:12;;;;;;;16.48;13.85;;;;;;;;;;5045236;28;20433;-81
2023/01/30 08:40:38;;;;;;;16.63;14.83;;;;;;;;;;5023614;28;20462;-81
2023/01/30 08:43:05;;;;;;;17.48;14.20;;;;;;;;;;5051124;28;20397;-81
2023/01/30 08:45:31;;;;;;;14.40;13.10;;;;;;;;;;5051153;28;20382;-81
2023/01/30 08:47:57;;;;;;;15.52;13.10;;;;;;;;;;5050910;28;20404;-80
2023/01/30 08:50:23;;;;;;;14.30;12.70;;;;;;;;;;5051370;28;20377;-81
2023/01/30 08:52:49;;;;;;;15.20;12.93;;;;;;;;;;5051077;28;20443;-80
2023/01/30 08:55:16;;;;;;;14.15;12.55;;;;;;;;;;5051528;28;20381;-80
2023/01/30 08:57:42;;;;;;;14.13;12.20;;;;;;;;;;5054916;28;20392;-80
2023/01/30 09:00:09;;;;;;;13.70;12.20;;;;;;;;;;5047694;28;20381;-80
2023/01/30 09:02:35;;;;;;;13.35;11.95;;;;;;;;;;5054875;28;20935;-80
2023/01/30 09:05:01;;;;;;;15.68;13.73;;;;;;;;;;5054749;28;21180;-80
2023/01/30 09:07:27;;;;;;;13.43;12.18;;;;;;;;;;5034221;28;20416;-80
2023/01/30 09:09:53;;;;;;;13.30;12.10;;;;;;;;;;5051265;28;20427;-80
2023/01/30 09:12:19;;;;;;;15.07;13.13;;;;;;;;;;5036171;28;20939;-81
2023/01/30 09:14:45;;;;;;;15.95;12.77;;;;;;;;;;5054566;28;20421;-81
2023/01/30 09:17:12;;;;;;;14.95;13.35;;;;;;;;;;5054669;28;20417;-80
2023/01/30 09:19:38;;;;;;;15.13;13.50;;;;;;;;;;5054629;28;20898;-81
2023/01/30 09:22:06;;;;;;;16.80;13.27;;;;;;;;;;5053883;28;20381;-81
2023/01/30 09:24:32;;;;;;;14.95;13.27;;;;;;;;;;5054162;28;20377;-81
2023/01/30 09:26:58;;;;;;;15.30;13.73;;;;;;;;;;5049068;28;20496;-81
2023/01/30 09:29:25;;;;;;;14.57;13.07;;;;;;;;;;5053088;28;20388;-81
2023/01/30 09:31:51;;;;;;;14.70;13.13;;;;;;;;;;5053629;28;20381;-81
2023/01/30 09:34:17;;;;;;;15.25;13.45;;;;;;;;;;5053199;28;20491;-81
2023/01/30 09:36:43;;;;;;;17.08;14.18;;;;;;;;;;5036260;28;20441;-80
2023/01/30 09:39:09;;;;;;;16.58;13.43;;;;;;;;;;5055146;28;20387;-80
2023/01/30 09:41:44;;;;;;;13.98;12.48;;;;;;;;;;5054922;28;20464;-82
2023/01/30 09:44:18;;;;;;;14.15;12.75;;;;;;;;;;5054743;28;20821;-80
2023/01/30 09:46:47;;;;;;;14.00;12.50;;;;;;;;;;5054436;28;20457;-80
2023/01/30 09:49:32;;;;;;;13.77;12.10;;;;;;;;;;5052114;28;20370;-81
2023/01/30 09:52:08;;;;;;;13.48;12.15;;;;;;;;;;5043886;28;20388;-81
2023/01/30 09:54:36;;;;;;;13.73;12.32;;;;;;;;;;5050039;28;20446;-83
2023/01/30 09:57:02;;;;;;;13.30;12.00;;;;;;;;;;5041420;28;20377;-81
2023/01/30 09:59:31;;;;;;;13.27;12.07;;;;;;;;;;5054091;28;20980;-81
2023/01/30 10:02:00;;;;;;;13.90;12.50;;;;;;;;;;5048996;28;20385;-80
2023/01/30 10:04:27;;;;;;;13.27;11.88;;;;;;;;;;5052483;28;20801;-80
2023/01/30 10:07:11;;;;;;;13.05;11.82;;;;;;;;;;5051347;28;20412;-81
2023/01/30 10:09:38;;;;;;;13.52;12.23;;;;;;;;;;5047514;28;20405;-81
2023/01/30 10:12:10;;;;;;;13.45;12.25;;;;;;;;;;5053629;28;20735;-81
2023/01/30 10:14:50;;;;;;;13.50;12.27;;;;;;;;;;5048482;28;20403;-81
2023/01/30 10:17:33;;;;;;;14.02;12.32;;;;;;;;;;5052604;28;20388;-82
2023/01/30 10:20:12;;;;;;;14.13;12.73;;;;;;;;;;5054227;28;20435;-81
2023/01/30 10:22:38;;;;;;;14.20;12.80;;;;;;;;;;5044773;28;20393;-81
2023/01/30 10:25:16;;;;;;;16.50;13.40;;;;;;;;;;5054383;28;20477;-81
2023/01/30 10:27:48;;;;;;;14.55;12.82;;;;;;;;;;5061999;28;20467;-79
2023/01/30 10:30:16;;;;;;;14.93;13.43;;;;;;;;;;5050734;28;20913;-79
2023/01/30 10:32:44;;;;;;;14.57;13.18;;;;;;;;;;5041924;28;20386;-80
2023/01/30 10:35:15;;;;;;;15.75;13.07;;;;;;;;;;5055582;28;20412;-82
2023/01/30 10:38:00;;;;;;;14.63;13.05;;;;;;;;;;5040411;28;20388;-82
2023/01/30 10:40:34;;;;;;;14.15;12.85;;;;;;;;;;5034078;28;20410;-81
2023/01/30 10:43:03;;;;;;;14.93;12.98;;;;;;;;;;5034126;28;20476;-81
2023/01/30 10:45:34;;;;;;;13.90;12.50;;;;;;;;;;5034892;28;20420;-81
2023/01/30 10:48:00;;;;;;;13.45;12.13;;;;;;;;;;5036658;28;20460;-82
2023/01/30 10:50:34;;;;;;;14.63;11.93;;;;;;;;;;5034190;28;21057;-82
2023/01/30 10:53:20;;;;;;;14.02;12.63;;;;;;;;;;5035018;28;20528;-81
2023/01/30 10:55:57;;;;;;;12.95;11.65;;;;;;;;;;5032617;28;20440;-81
2023/01/30 10:58:39;;;;;;;14.88;11.93;;;;;;;;;;5033380;28;20444;-82
2023/01/30 11:01:07;;;;;;;16.30;12.00;;;;;;;;;;5032062;28;20469;-81
2023/01/30 11:03:37;;;;;;;13.55;12.25;;;;;;;;;;5037682;28;20401;-82
2023/01/30 11:06:15;;;;;;;14.18;12.68;;;;;;;;;;5033925;28;20418;-82
2023/01/30 11:08:41;;;;;;;14.10;12.70;;;;;;;;;;5041021;28;20413;-82
2023/01/30 11:11:40;;;;;;;14.93;13.43;;;;;;;;;;5041704;28;20418;-81
2023/01/30 11:14:10;;;;;;;15.07;13.05;;;;;;;;;;4990244;28;20535;-82
2023/01/30 11:16:46;;;;;;;15.60;13.45;;;;;;;;;;5039520;28;20909;-81
2023/01/30 11:19:14;;;;;;;16.48;13.73;;;;;;;;;;5031619;28;20411;-81
2023/01/30 11:21:41;;;;;;;15.25;13.48;;;;;;;;;;5034779;28;20379;-81
2023/01/30 11:24:18;;;;;;;13.85;12.55;;;;;;;;;;5034852;28;20463;-81
2023/01/30 11:26:45;;;;;;;14.45;13.15;;;;;;;;;;5033442;28;20442;-82
2023/01/30 11:29:36;;;;;;;14.50;13.00;;;;;;;;;;5047667;28;20738;-83
2023/01/30 11:32:20;;;;;;;15.13;13.20;;;;;;;;;;5049043;28;20524;-83
2023/01/30 11:35:00;;;;;;;15.02;13.43;;;;;;;;;;5052244;28;20498;-82
2023/01/30 11:37:30;;;;;;;17.33;13.63;;;;;;;;;;5052681;28;20471;-82
2023/01/30 11:39:56;;;;;;;14.55;12.90;;;;;;;;;;5034668;28;20437;-83
2023/01/30 11:42:24;;;;;;;14.57;13.18;;;;;;;;;;5039834;28;20397;-82
2023/01/30 11:44:56;;;;;;;14.98;13.38;;;;;;;;;;5045137;28;20446;-83
2023/01/30 11:47:24;;;;;;;14.68;13.05;;;;;;;;;;5048402;28;20947;-82
2023/01/30 11:49:53;;;;;;;14.68;13.13;;;;;;;;;;5042269;28;20455;-82
2023/01/30 11:52:21;;;;;;;14.02;12.52;;;;;;;;;;5052159;28;20882;-82
2023/01/30 11:54:48;;;;;;;14.60;13.10;;;;;;;;;;5052318;28;20559;-83
2023/01/30 11:57:15;;;;;;;14.90;13.13;;;;;;;;;;5051440;28;20399;-83
2023/01/30 11:59:46;;;;;;;15.93;13.32;;;;;;;;;;5048991;28;20391;-83
2023/01/30 12:02:24;;;;;;;14.20;12.70;;;;;;;;;;5048385;28;20473;-82
2023/01/30 12:04:55;;;;;;;13.48;12.07;;;;;;;;;;5052063;28;20388;-83
2023/01/30 12:07:21;;;;;;;14.00;12.25;;;;;;;;;;5052256;28;20401;-82
2023/01/30 12:09:49;;;;;;;14.10;12.70;;;;;;;;;;5052251;28;20396;-81
2023/01/30 12:12:33;;;;;;;16.48;13.70;;;;;;;;;;5052079;28;20381;-80
2023/01/30 12:15:21;;;;;;;15.32;12.73;;;;;;;;;;5052064;28;20859;-81
2023/01/30 12:17:50;;;;;;;14.52;13.10;;;;;;;;;;5052024;28;20442;-81
2023/01/30 12:20:24;;;;;;;14.85;13.35;;;;;;;;;;5052070;28;20859;-81
2023/01/30 12:22:57;;;;;;;14.85;13.35;;;;;;;;;;5052058;28;20957;-81
2023/01/30 12:25:31;;;;;;;14.23;12.80;;;;;;;;;;5052026;28;20388;-81
2023/01/30 12:28:00;;;;;;;14.48;12.82;;;;;;;;;;5051923;28;20415;-81
2023/01/30 12:30:38;;;;;;;15.00;13.23;;;;;;;;;;5052745;28;20418;-82
2023/01/30 12:33:05;;;;;;;14.82;13.30;;;;;;;;;;5039419;28;20486;-82
2023/01/30 12:35:40;;;;;;;15.18;13.55;;;;;;;;;;5049612;28;20405;-81
2023/01/30 12:38:09;;;;;;;15.07;13.55;;;;;;;;;;5042113;28;20426;-81
2023/01/30 12:40:44;;;;;;;16.90;13.65;;;;;;;;;;5036830;28;20860;-82
2023/01/30 12:43:10;;;;;;;16.13;14.43;;;;;;;;;;5045620;28;20515;-81
2023/01/30 12:45:43;;;;;;;15.90;13.90;;;;;;;;;;5035952;28;20835;-81
2023/01/30 12:48:27;;;;;;;15.75;14.15;;;;;;;;;;5042799;28;20552;-83
2023/01/30 12:51:03;;;;;;;15.70;14.00;;;;;;;;;;5055224;28;20452;-80
2023/01/30 12:53:40;;;;;;;16.10;14.35;;;;;;;;;;5052333;28;20449;-81
2023/01/30 12:56:12;;;;;;;17.80;14.88;;;;;;;;;;5023980;28;20428;-81
2023/01/30 12:58:46;;;;;;;17.55;15.57;;;;;;;;;;5054057;28;20435;-81
2023/01/30 13:01:28;;;;;;;18.85;15.88;;;;;;;;;;5054166;28;20449;-81
2023/01/30 13:04:12;;;;;;;17.17;15.25;;;;;;;;;;5054602;28;20538;-81
2023/01/30 13:06:49;;;;;;;17.25;15.27;;;;;;;;;;5053554;28;20500;-81
2023/01/30 13:09:26;;;;;;;17.57;15.37;;;;;;;;;;5052115;28;20480;-82
2023/01/30 13:11:58;;;;;;;19.23;15.45;;;;;;;;;;5054206;28;20901;-83
2023/01/30 13:14:33;;;;;;;17.40;15.35;;;;;;;;;;5054244;28;20751;-81
2023/01/30 13:17:11;;;;;;;17.65;14.55;;;;;;;;;;5051277;28;20446;-81
2023/01/30 13:19:43;;;;;;;17.30;15.25;;;;;;;;;;5054889;28;20545;-81
2023/01/30 13:22:17;;;;;;;16.73;14.75;;;;;;;;;;5054804;28;20986;-80
2023/01/30 13:24:49;;;;;;;18.48;15.90;;;;;;;;;;5054857;28;20390;-81
2023/01/30 13:27:18;;;;;;;17.73;15.35;;;;;;;;;;5054600;28;20453;-81
2023/01/30 13:29:45;;;;;;;18.55;15.95;;;;;;;;;;5054684;28;20382;-81
2023/01/30 13:32:16;;;;;;;19.70;16.33;;;;;;;;;;5046635;28;20420;-81
2023/01/30 13:34:45;;;;;;;20.00;16.42;;;;;;;;;;5042643;28;20525;-81
2023/01/30 13:37:15;;;;;;;19.13;16.02;;;;;;;;;;5054530;28;20505;-81
2023/01/30 13:39:47;;;;;;;18.02;16.10;;;;;;;;;;5054541;28;20426;-81
2023/01/30 13:42:25;;;;;;;19.13;16.05;;;;;;;;;;5053559;28;20397;-81
2023/01/30 13:44:51;;;;;;;17.75;15.70;;;;;;;;;;5034884;28;20476;-81
2023/01/30 13:47:17;;;;;;;17.95;15.23;;;;;;;;;;5036420;28;20412;-82
2023/01/30 13:49:59;;;;;;;20.30;17.50;;;;;;;;;;5036027;28;20397;-82
2023/01/30 13:52:31;;;;;;;17.83;16.02;;;;;;;;;;5054382;28;20458;-82
2023/01/30 13:55:01;;;;;;;18.05;16.10;;;;;;;;;;5053866;28;20401;-81
2023/01/30 13:57:56;;;;;;;19.83;16.65;;;;;;;;;;5040801;28;20391;-81
2023/01/30 14:00:32;;;;;;;19.15;16.70;;;;;;;;;;5013885;28;20399;-81
2023/01/30 14:03:18;;;;;;;18.60;16.65;;;;;;;;;;5052148;28;20392;-81
2023/01/30 14:05:50;;;;;;;19.77;16.48;;;;;;;;;;5043305;28;20381;-81
2023/01/30 14:08:24;;;;;;;23.27;16.30;;;;;;;;;;5060269;28;20417;-79
2023/01/30 14:10:50;;;;;;;19.97;17.37;;;;;;;;;;5059256;28;20908;-81
2023/01/30 14:13:16;;;;;;;18.85;16.20;;;;;;;;;;5037103;28;20890;-81
2023/01/30 14:16:05;;;;;;;18.75;16.50;;;;;;;;;;5055979;28;20465;-81
2023/01/30 14:18:37;;;;;;;19.42;17.08;;;;;;;;;;5054826;28;20445;-81
2023/01/30 14:21:20;;;;;;;20.60;17.08;;;;;;;;;;5054283;28;20473;-81
2023/01/30 14:24:00;;;;;;;19.77;17.52;;;;;;;;;;5053972;28;20373;-81
2023/01/30 14:26:45;;;;;;;20.85;18.40;;;;;;;;;;5054233;28;20401;-81
2023/01/30 14:29:11;;;;;;;21.23;18.30;;;;;;;;;;5053957;28;20483;-81
2023/01/30 14:31:50;;;;;;;22.20;18.40;;;;;;;;;;5035981;28;20476;-81
2023/01/30 14:34:38;;;;;;;22.63;19.05;;;;;;;;;;5053268;28;20392;-81
2023/01/30 14:37:24;;;;;;;24.33;19.52;;;;;;;;;;5053868;28;20378;-81
2023/01/30 14:39:52;;;;;;;21.75;19.40;;;;;;;;;;5053400;28;20851;-81